createdAt,value
2023-06-30T00:00:17.564Z,63.05
2023-06-30T00:01:26.806Z,63.18
2023-06-30T00:02:34.549Z,63.03
2023-06-30T00:03:39.582Z,63.46
2023-06-30T00:04:49.800Z,63.35
2023-06-30T00:05:58.174Z,63.41
2023-06-30T00:07:07.467Z,63.34
2023-06-30T00:08:13.312Z,63.16
2023-06-30T00:09:21.007Z,63.28
2023-06-30T00:10:25.903Z,63.71
2023-06-30T00:11:33.560Z,64.17
2023-06-30T00:12:38.520Z,64.20
2023-06-30T00:13:46.127Z,64.14
2023-06-30T00:14:51.513Z,64.10
2023-06-30T00:16:00.975Z,64.15
2023-06-30T00:17:06.345Z,64.48
2023-06-30T00:18:14.022Z,64.62
2023-06-30T00:19:18.990Z,64.64
2023-06-30T00:20:26.894Z,64.20
2023-06-30T00:21:34.721Z,64.85
2023-06-30T00:22:42.494Z,64.54
2023-06-30T00:23:47.550Z,64.59
2023-06-30T00:25:00.638Z,64.44
2023-06-30T00:26:05.477Z,64.77
2023-06-30T00:27:13.179Z,64.72
2023-06-30T00:28:18.160Z,64.58
2023-06-30T00:29:25.875Z,64.18
2023-06-30T00:30:30.967Z,63.00
2023-06-30T00:31:38.772Z,62.83
2023-06-30T00:32:43.985Z,62.91
2023-06-30T00:33:51.602Z,63.89
2023-06-30T00:34:56.469Z,63.68
2023-06-30T00:36:04.420Z,63.62
2023-06-30T00:37:12.174Z,63.75
2023-06-30T00:38:19.871Z,63.89
2023-06-30T00:39:26.786Z,63.48
2023-06-30T00:40:34.686Z,63.53
2023-06-30T00:41:39.556Z,63.55
2023-06-30T00:42:47.401Z,63.00
2023-06-30T00:43:52.350Z,62.75
2023-06-30T00:45:01.812Z,62.02
2023-06-30T00:46:06.852Z,61.64
2023-06-30T00:47:15.109Z,60.74
2023-06-30T00:48:20.193Z,60.35
2023-06-30T00:49:27.799Z,59.63
2023-06-30T00:50:33.438Z,59.54
2023-06-30T00:51:41.241Z,58.78
2023-06-30T00:52:51.323Z,58.26
2023-06-30T00:53:59.392Z,58.75
2023-06-30T00:55:05.246Z,58.37
2023-06-30T00:56:12.964Z,58.29
2023-06-30T00:57:17.978Z,58.18
2023-06-30T00:58:25.637Z,58.16
2023-06-30T00:59:30.532Z,58.52
2023-06-30T01:00:38.252Z,58.39
2023-06-30T01:01:51.420Z,57.82
2023-06-30T01:03:16.060Z,58.34
2023-06-30T01:04:31.530Z,57.87
2023-06-30T01:05:49.948Z,57.54
2023-06-30T01:07:05.332Z,56.85
2023-06-30T01:08:28.740Z,56.79
2023-06-30T01:09:41.172Z,56.88
2023-06-30T01:10:51.635Z,56.20
2023-06-30T01:11:58.178Z,56.25
2023-06-30T01:13:10.032Z,56.60
2023-06-30T01:14:22.656Z,56.44
2023-06-30T01:15:28.362Z,56.31
2023-06-30T01:16:38.975Z,56.52
2023-06-30T01:17:50.001Z,56.54
2023-06-30T01:19:01.318Z,56.90
2023-06-30T01:20:08.679Z,57.12
2023-06-30T01:21:18.434Z,57.56
2023-06-30T01:22:28.368Z,57.65
2023-06-30T01:23:42.896Z,57.47
2023-06-30T01:24:51.816Z,56.96
2023-06-30T01:26:00.758Z,57.04
2023-06-30T01:27:06.881Z,56.74
2023-06-30T01:28:15.572Z,56.58
2023-06-30T01:29:22.769Z,56.62
2023-06-30T01:30:33.551Z,55.83
2023-06-30T01:31:38.608Z,55.82
2023-06-30T01:32:47.470Z,56.44
2023-06-30T01:33:52.838Z,56.76
2023-06-30T01:35:00.532Z,57.12
2023-06-30T01:36:06.205Z,57.94
2023-06-30T01:37:13.951Z,58.62
2023-06-30T01:38:18.967Z,59.03
2023-06-30T01:39:29.244Z,59.18
2023-06-30T01:40:35.038Z,59.41
2023-06-30T01:41:42.963Z,59.62
2023-06-30T01:42:49.372Z,59.88
2023-06-30T01:43:57.730Z,59.94
2023-06-30T01:45:04.063Z,60.20
2023-06-30T01:46:12.802Z,59.92
2023-06-30T01:47:18.424Z,59.90
2023-06-30T01:48:26.735Z,59.89
2023-06-30T01:49:32.422Z,60.00
2023-06-30T01:50:42.832Z,59.89
2023-06-30T01:51:47.916Z,59.69
2023-06-30T01:52:55.581Z,59.58
2023-06-30T01:54:00.631Z,59.66
2023-06-30T01:55:11.823Z,59.83
2023-06-30T01:56:19.494Z,59.85
2023-06-30T01:57:24.535Z,59.88
2023-06-30T01:58:33.413Z,60.22
2023-06-30T01:59:38.582Z,59.87
2023-06-30T02:00:46.220Z,59.87
2023-06-30T02:01:51.158Z,59.79
2023-06-30T02:02:58.856Z,60.13
2023-06-30T02:04:03.833Z,59.91
2023-06-30T02:05:12.336Z,59.57
2023-06-30T02:06:17.533Z,59.99
2023-06-30T02:07:25.373Z,60.15
2023-06-30T02:08:30.304Z,60.57
2023-06-30T02:09:47.338Z,60.88
2023-06-30T02:10:58.705Z,61.14
2023-06-30T02:12:05.329Z,61.21
2023-06-30T02:13:12.920Z,61.28
2023-06-30T02:14:17.917Z,61.47
2023-06-30T02:15:25.745Z,61.66
2023-06-30T02:16:33.305Z,61.66
2023-06-30T02:17:42.094Z,62.09
2023-06-30T02:18:47.017Z,62.00
2023-06-30T02:19:54.666Z,62.43
2023-06-30T02:21:02.364Z,62.73
2023-06-30T02:22:08.035Z,63.04
2023-06-30T02:23:15.690Z,62.81
2023-06-30T02:24:20.706Z,62.80
2023-06-30T02:25:29.582Z,62.63
2023-06-30T02:26:37.245Z,62.78
2023-06-30T02:27:46.998Z,63.49
2023-06-30T02:28:57.551Z,63.16
2023-06-30T02:30:07.281Z,62.88
2023-06-30T02:31:13.845Z,62.83
2023-06-30T02:32:21.721Z,63.28
2023-06-30T02:33:26.882Z,63.35
2023-06-30T02:34:34.383Z,63.42
2023-06-30T02:35:39.711Z,63.51
2023-06-30T02:36:47.531Z,63.50
2023-06-30T02:37:52.467Z,63.28
2023-06-30T02:39:04.142Z,63.44
2023-06-30T02:40:10.985Z,63.75
2023-06-30T02:41:18.554Z,63.97
2023-06-30T02:42:26.311Z,63.81
2023-06-30T02:43:34.027Z,63.99
2023-06-30T02:44:38.942Z,63.96
2023-06-30T02:45:47.525Z,63.71
2023-06-30T02:46:53.104Z,63.51
2023-06-30T02:48:00.708Z,63.27
2023-06-30T02:49:05.804Z,63.17
2023-06-30T02:50:14.089Z,63.42
2023-06-30T02:51:19.851Z,63.43
2023-06-30T02:52:30.130Z,63.44
2023-06-30T02:53:36.490Z,63.91
2023-06-30T02:54:44.148Z,63.67
2023-06-30T02:55:49.466Z,63.74
2023-06-30T02:56:57.891Z,63.68
2023-06-30T02:58:05.823Z,63.59
2023-06-30T02:59:15.765Z,63.87
2023-06-30T03:00:21.969Z,64.14
2023-06-30T03:01:30.393Z,63.81
2023-06-30T03:02:35.632Z,63.78
2023-06-30T03:03:44.724Z,63.90
2023-06-30T03:04:52.828Z,64.02
2023-06-30T03:06:00.638Z,63.91
2023-06-30T03:07:09.623Z,63.73
2023-06-30T03:08:20.462Z,63.80
2023-06-30T03:09:27.189Z,63.80
2023-06-30T03:10:35.096Z,63.65
2023-06-30T03:11:40.127Z,63.87
2023-06-30T03:12:48.109Z,63.60
2023-06-30T03:13:55.902Z,63.73
2023-06-30T03:15:06.098Z,63.52
2023-06-30T03:16:14.788Z,63.55
2023-06-30T03:17:23.061Z,63.30
2023-06-30T03:18:28.138Z,63.42
2023-06-30T03:19:35.766Z,63.30
2023-06-30T03:20:41.753Z,63.68
2023-06-30T03:21:49.542Z,63.62
2023-06-30T03:22:55.880Z,63.85
2023-06-30T03:24:04.444Z,63.53
2023-06-30T03:25:11.002Z,63.68
2023-06-30T03:26:18.710Z,63.94
2023-06-30T03:27:23.654Z,64.18
2023-06-30T03:28:31.672Z,64.33
2023-06-30T03:29:39.315Z,64.71
2023-06-30T03:30:47.212Z,64.58
2023-06-30T03:31:52.519Z,64.70
2023-06-30T03:33:00.894Z,64.73
2023-06-30T03:34:06.088Z,64.83
2023-06-30T03:35:13.992Z,64.52
2023-06-30T03:36:25.300Z,64.68
2023-06-30T03:37:32.111Z,64.63
2023-06-30T03:38:40.070Z,65.05
2023-06-30T03:39:45.188Z,65.11
2023-06-30T03:40:52.930Z,64.78
2023-06-30T03:41:57.941Z,64.99
2023-06-30T03:43:05.471Z,64.99
2023-06-30T03:44:12.910Z,64.67
2023-06-30T03:45:23.463Z,64.59
2023-06-30T03:46:28.727Z,64.43
2023-06-30T03:47:36.600Z,64.20
2023-06-30T03:48:41.736Z,64.14
2023-06-30T03:49:50.610Z,64.62
2023-06-30T03:50:56.249Z,64.77
2023-06-30T03:52:04.597Z,64.37
2023-06-30T03:53:09.577Z,65.10
2023-06-30T03:54:17.347Z,65.04
2023-06-30T03:55:22.335Z,65.01
2023-06-30T03:56:30.008Z,65.45
2023-06-30T03:57:35.031Z,64.98
2023-06-30T03:58:42.647Z,65.28
2023-06-30T03:59:48.935Z,64.99
2023-06-30T04:00:59.939Z,65.34
2023-06-30T04:02:04.983Z,65.49
2023-06-30T04:03:12.765Z,65.17
2023-06-30T04:04:18.040Z,65.36
2023-06-30T04:05:26.372Z,65.52
2023-06-30T04:06:32.817Z,65.74
2023-06-30T04:07:41.041Z,65.26
2023-06-30T04:08:46.430Z,65.55
2023-06-30T04:09:53.993Z,65.60
2023-06-30T04:10:58.967Z,65.55
2023-06-30T04:12:06.690Z,65.45
2023-06-30T04:13:11.604Z,65.70
2023-06-30T04:14:19.241Z,66.02
2023-06-30T04:15:24.350Z,65.53
2023-06-30T04:16:34.766Z,65.60
2023-06-30T04:17:40.232Z,66.27
2023-06-30T04:18:47.874Z,66.04
2023-06-30T04:19:52.845Z,66.32
2023-06-30T04:21:00.953Z,66.71
2023-06-30T04:22:06.679Z,66.79
2023-06-30T04:23:14.251Z,66.84
2023-06-30T04:24:19.943Z,66.66
2023-06-30T04:25:27.644Z,66.51
2023-06-30T04:26:33.308Z,66.45
2023-06-30T04:27:41.629Z,66.43
2023-06-30T04:28:46.566Z,66.16
2023-06-30T04:29:54.704Z,66.21
2023-06-30T04:31:00.393Z,66.27
2023-06-30T04:32:10.996Z,66.47
2023-06-30T04:33:16.162Z,66.69
2023-06-30T04:34:23.770Z,66.62
2023-06-30T04:35:28.831Z,66.82
2023-06-30T04:36:36.638Z,66.98
2023-06-30T04:37:42.376Z,66.80
2023-06-30T04:38:50.193Z,66.96
2023-06-30T04:39:55.194Z,66.84
2023-06-30T04:41:02.806Z,66.50
2023-06-30T04:42:08.403Z,66.62
2023-06-30T04:43:16.153Z,66.87
2023-06-30T04:44:21.017Z,66.89
2023-06-30T04:45:28.630Z,66.77
2023-06-30T04:46:33.978Z,66.76
2023-06-30T04:47:44.572Z,66.80
2023-06-30T04:48:50.049Z,66.55
2023-06-30T04:50:01.180Z,66.78
2023-06-30T04:51:06.822Z,66.94
2023-06-30T04:52:15.291Z,67.05
2023-06-30T04:53:20.368Z,67.07
2023-06-30T04:54:28.099Z,66.97
2023-06-30T04:55:32.964Z,67.09
2023-06-30T04:56:40.490Z,67.34
2023-06-30T04:57:45.447Z,67.08
2023-06-30T04:58:55.165Z,66.95
2023-06-30T05:00:00.109Z,66.80
2023-06-30T05:01:08.618Z,66.65
2023-06-30T05:02:13.670Z,67.13
2023-06-30T05:03:24.178Z,67.08
2023-06-30T05:04:29.125Z,67.45
2023-06-30T05:05:36.939Z,67.30
2023-06-30T05:06:44.630Z,67.38
2023-06-30T05:07:49.465Z,67.35
2023-06-30T05:08:57.159Z,67.28
2023-06-30T05:10:02.110Z,67.19
2023-06-30T05:11:09.737Z,67.30
2023-06-30T05:12:16.738Z,66.93
2023-06-30T05:13:24.402Z,67.00
2023-06-30T05:14:29.250Z,66.93
2023-06-30T05:15:36.855Z,67.04
2023-06-30T05:16:41.895Z,66.81
2023-06-30T05:17:49.602Z,66.90
2023-06-30T05:19:01.036Z,66.73
2023-06-30T05:20:09.899Z,66.95
2023-06-30T05:21:17.478Z,66.94
2023-06-30T05:22:22.396Z,66.56
2023-06-30T05:23:30.958Z,66.34
2023-06-30T05:24:36.747Z,66.49
2023-06-30T05:25:44.719Z,66.55
2023-06-30T05:26:50.133Z,66.53
2023-06-30T05:27:58.030Z,66.20
2023-06-30T05:29:05.405Z,66.37
2023-06-30T05:30:14.533Z,66.57
2023-06-30T05:31:19.811Z,66.43
2023-06-30T05:32:28.433Z,66.80
2023-06-30T05:33:33.702Z,66.50
2023-06-30T05:34:43.907Z,66.70
2023-06-30T05:35:48.864Z,66.96
2023-06-30T05:36:57.727Z,66.81
2023-06-30T05:38:02.652Z,66.85
2023-06-30T05:39:10.413Z,66.78
2023-06-30T05:40:15.456Z,66.07
2023-06-30T05:41:23.314Z,66.17
2023-06-30T05:42:28.253Z,65.99
2023-06-30T05:43:35.832Z,65.82
2023-06-30T05:44:40.766Z,65.39
2023-06-30T05:45:49.328Z,65.45
2023-06-30T05:46:56.931Z,65.63
2023-06-30T05:48:04.816Z,65.08
2023-06-30T05:49:12.523Z,65.24
2023-06-30T05:50:23.601Z,65.01
2023-06-30T05:51:31.118Z,64.90
2023-06-30T05:52:36.072Z,64.34
2023-06-30T05:53:43.639Z,64.28
2023-06-30T05:54:48.592Z,63.99
2023-06-30T05:55:57.601Z,63.86
2023-06-30T05:57:05.334Z,63.29
2023-06-30T05:58:12.947Z,63.04
2023-06-30T05:59:17.861Z,63.10
2023-06-30T06:00:26.944Z,63.50
2023-06-30T06:01:31.942Z,63.80
2023-06-30T06:02:39.936Z,63.93
2023-06-30T06:03:45.863Z,63.94
2023-06-30T06:04:54.013Z,63.47
2023-06-30T06:06:01.822Z,63.44
2023-06-30T06:07:09.853Z,63.13
2023-06-30T06:08:17.532Z,63.04
2023-06-30T06:09:22.492Z,62.46
2023-06-30T06:10:30.087Z,62.53
2023-06-30T06:11:35.019Z,62.66
2023-06-30T06:12:44.602Z,62.30
2023-06-30T06:13:49.561Z,62.29
2023-06-30T06:14:57.261Z,61.89
2023-06-30T06:16:03.012Z,61.94
2023-06-30T06:17:11.717Z,62.65
2023-06-30T06:18:16.612Z,63.18
2023-06-30T06:19:24.571Z,63.76
2023-06-30T06:20:29.637Z,64.16
2023-06-30T06:21:39.971Z,64.22
2023-06-30T06:22:44.984Z,64.51
2023-06-30T06:23:55.110Z,64.95
2023-06-30T06:25:02.789Z,64.97
2023-06-30T06:26:07.731Z,65.25
2023-06-30T06:27:15.578Z,64.96
2023-06-30T06:28:20.684Z,64.97
2023-06-30T06:29:28.705Z,64.92
2023-06-30T06:30:33.682Z,64.72
2023-06-30T06:31:41.244Z,64.65
2023-06-30T06:32:48.790Z,64.32
2023-06-30T06:33:55.889Z,63.96
2023-06-30T06:35:03.739Z,64.09
2023-06-30T06:36:09.771Z,64.57
2023-06-30T06:37:20.952Z,65.01
2023-06-30T06:38:25.960Z,65.30
2023-06-30T06:39:33.531Z,65.21
2023-06-30T06:40:39.145Z,65.60
2023-06-30T06:41:46.812Z,65.66
2023-06-30T06:42:56.461Z,65.93
2023-06-30T06:44:08.390Z,65.68
2023-06-30T06:45:14.319Z,65.96
2023-06-30T06:46:22.020Z,65.83
2023-06-30T06:47:58.838Z,65.99
2023-06-30T06:49:06.442Z,65.72
2023-06-30T06:50:11.716Z,65.54
2023-06-30T06:51:19.555Z,65.01
2023-06-30T06:52:27.125Z,65.34
2023-06-30T06:53:36.384Z,65.34
2023-06-30T06:54:41.295Z,65.25
2023-06-30T06:55:53.800Z,65.48
2023-06-30T06:56:58.810Z,66.01
2023-06-30T06:58:06.509Z,65.88
2023-06-30T06:59:14.080Z,65.69
2023-06-30T07:00:20.222Z,65.93
2023-06-30T07:01:28.032Z,65.83
2023-06-30T07:02:33.358Z,65.44
2023-06-30T07:03:41.213Z,65.92
2023-06-30T07:04:46.156Z,65.74
2023-06-30T07:05:54.344Z,65.87
2023-06-30T07:06:59.183Z,65.65
2023-06-30T07:08:10.590Z,65.60
2023-06-30T07:09:15.652Z,65.26
2023-06-30T07:10:23.567Z,64.83
2023-06-30T07:11:31.233Z,65.19
2023-06-30T07:12:36.146Z,65.07
2023-06-30T07:13:44.044Z,65.00
2023-06-30T07:14:50.194Z,64.56
2023-06-30T07:15:58.004Z,64.42
2023-06-30T07:17:02.877Z,64.49
2023-06-30T07:18:10.841Z,64.52
2023-06-30T07:19:16.082Z,64.84
2023-06-30T07:20:23.918Z,64.93
2023-06-30T07:21:28.771Z,64.73
2023-06-30T07:22:36.670Z,64.61
2023-06-30T07:23:50.462Z,64.33
2023-06-30T07:24:55.436Z,64.27
2023-06-30T07:26:03.016Z,64.35
2023-06-30T07:27:08.673Z,64.38
2023-06-30T07:28:16.551Z,64.27
2023-06-30T07:29:21.434Z,64.15
2023-06-30T07:30:30.507Z,64.09
2023-06-30T07:31:38.193Z,64.16
2023-06-30T07:32:44.832Z,63.91
2023-06-30T07:33:52.424Z,63.94
2023-06-30T07:34:57.247Z,63.92
2023-06-30T07:36:04.889Z,63.92
2023-06-30T07:37:09.811Z,63.55
2023-06-30T07:38:17.808Z,63.41
2023-06-30T07:39:25.467Z,63.20
2023-06-30T07:40:50.272Z,63.47
2023-06-30T07:41:58.662Z,63.45
2023-06-30T07:43:03.938Z,63.24
2023-06-30T07:44:13.617Z,63.15
2023-06-30T07:45:19.631Z,63.33
2023-06-30T07:46:27.248Z,63.29
2023-06-30T07:47:32.406Z,62.97
2023-06-30T07:48:40.679Z,63.40
2023-06-30T07:49:45.744Z,63.11
2023-06-30T07:51:03.662Z,63.18
2023-06-30T07:52:13.773Z,63.21
2023-06-30T07:53:23.072Z,63.44
2023-06-30T07:54:30.685Z,63.19
2023-06-30T07:55:38.372Z,63.40
2023-06-30T07:56:43.425Z,63.31
2023-06-30T07:57:54.199Z,63.40
2023-06-30T07:58:59.089Z,63.30
2023-06-30T08:00:07.899Z,63.43
2023-06-30T08:01:24.402Z,63.22
2023-06-30T08:02:29.428Z,63.54
2023-06-30T08:03:38.172Z,63.74
2023-06-30T08:04:43.586Z,63.71
2023-06-30T08:05:51.639Z,64.06
2023-06-30T08:06:57.056Z,63.92
2023-06-30T08:08:04.640Z,63.92
2023-06-30T08:09:09.495Z,63.95
2023-06-30T08:10:20.495Z,64.31
2023-06-30T08:11:27.397Z,64.27
2023-06-30T08:12:35.311Z,64.09
2023-06-30T08:13:40.882Z,64.02
2023-06-30T08:14:50.204Z,64.29
2023-06-30T08:15:55.680Z,64.33
2023-06-30T08:17:03.488Z,64.29
2023-06-30T08:18:10.123Z,64.18
2023-06-30T08:19:47.886Z,64.36
2023-06-30T08:20:45.887Z,64.15
2023-06-30T08:21:50.876Z,64.30
2023-06-30T08:22:58.669Z,64.40
2023-06-30T08:24:03.687Z,64.65
2023-06-30T08:25:11.980Z,64.54
2023-06-30T08:26:19.919Z,64.47
2023-06-30T08:27:27.551Z,64.69
2023-06-30T08:28:32.446Z,64.57
2023-06-30T08:29:41.699Z,64.72
2023-06-30T08:30:46.686Z,64.94
2023-06-30T08:31:54.508Z,64.90
2023-06-30T08:33:02.073Z,65.02
2023-06-30T08:34:07.402Z,64.96
2023-06-30T08:35:15.405Z,65.06
2023-06-30T08:36:20.645Z,64.64
2023-06-30T08:37:28.193Z,64.86
2023-06-30T08:38:33.191Z,64.73
2023-06-30T08:39:41.239Z,64.59
2023-06-30T08:40:46.256Z,64.61
2023-06-30T08:41:59.389Z,64.44
2023-06-30T08:43:18.362Z,64.38
2023-06-30T08:44:27.256Z,64.44
2023-06-30T08:45:35.294Z,64.48
2023-06-30T08:46:44.162Z,64.29
2023-06-30T08:47:49.352Z,64.55
2023-06-30T08:48:57.972Z,64.33
2023-06-30T08:50:03.371Z,64.59
2023-06-30T08:51:12.028Z,64.30
2023-06-30T08:52:20.549Z,64.21
2023-06-30T08:53:28.635Z,64.46
2023-06-30T08:54:38.694Z,64.41
2023-06-30T08:55:44.205Z,64.56
2023-06-30T08:56:51.924Z,64.47
2023-06-30T08:58:09.707Z,64.62
2023-06-30T08:59:21.959Z,64.31
2023-06-30T09:00:27.676Z,64.44
2023-06-30T09:01:35.520Z,64.33
2023-06-30T09:02:42.847Z,64.20
2023-06-30T09:03:50.582Z,64.38
2023-06-30T09:04:57.411Z,64.56
2023-06-30T09:06:06.075Z,64.40
2023-06-30T09:07:25.217Z,64.82
2023-06-30T09:08:43.633Z,64.72
2023-06-30T09:09:52.501Z,64.63
2023-06-30T09:10:58.167Z,64.84
2023-06-30T09:12:05.956Z,64.76
2023-06-30T09:13:14.675Z,64.62
2023-06-30T09:14:22.783Z,64.51
2023-06-30T09:15:28.692Z,64.67
2023-06-30T09:16:37.540Z,64.34
2023-06-30T09:17:45.774Z,64.41
2023-06-30T09:18:51.301Z,64.56
2023-06-30T09:19:59.021Z,64.29
2023-06-30T09:21:07.622Z,64.36
2023-06-30T09:22:54.809Z,64.62
2023-06-30T09:23:44.785Z,64.46
2023-06-30T09:24:53.330Z,64.80
2023-06-30T09:26:01.059Z,64.72
2023-06-30T09:27:06.496Z,64.63
2023-06-30T09:28:18.591Z,64.72
2023-06-30T09:29:27.793Z,64.90
2023-06-30T09:30:35.385Z,64.74
2023-06-30T09:31:44.119Z,64.61
2023-06-30T09:32:49.293Z,64.46
2023-06-30T09:33:56.984Z,65.03
2023-06-30T09:35:11.898Z,65.24
2023-06-30T09:36:22.660Z,65.09
2023-06-30T09:37:27.578Z,64.90
2023-06-30T09:38:35.226Z,65.15
2023-06-30T09:39:51.754Z,65.41
2023-06-30T09:41:00.556Z,65.73
2023-06-30T09:42:08.802Z,65.86
2023-06-30T09:43:25.325Z,65.43
2023-06-30T09:44:39.412Z,65.21
2023-06-30T09:45:50.073Z,65.41
2023-06-30T09:46:56.548Z,65.32
2023-06-30T09:48:05.345Z,64.97
2023-06-30T09:49:14.661Z,65.18
2023-06-30T09:50:25.673Z,65.11
2023-06-30T09:51:36.308Z,65.18
2023-06-30T09:52:41.152Z,65.47
2023-06-30T09:53:48.726Z,65.23
2023-06-30T09:54:53.941Z,65.33
2023-06-30T09:56:01.480Z,65.10
2023-06-30T09:57:12.952Z,65.04
2023-06-30T09:58:22.345Z,65.02
2023-06-30T09:59:30.389Z,65.29
2023-06-30T10:00:36.934Z,65.33
2023-06-30T10:01:46.092Z,65.75
2023-06-30T10:03:04.852Z,65.79
2023-06-30T10:04:13.237Z,65.81
2023-06-30T10:05:19.720Z,65.42
2023-06-30T10:06:28.843Z,65.44
2023-06-30T10:07:33.999Z,65.50
2023-06-30T10:08:41.784Z,65.73
2023-06-30T10:09:52.216Z,65.53
2023-06-30T10:11:01.952Z,65.55
2023-06-30T10:12:10.788Z,65.62
2023-06-30T10:13:23.159Z,65.60
2023-06-30T10:14:31.741Z,65.43
2023-06-30T10:15:40.859Z,65.76
2023-06-30T10:16:53.131Z,65.50
2023-06-30T10:18:04.098Z,65.98
2023-06-30T10:19:13.199Z,65.76
2023-06-30T10:20:22.067Z,66.20
2023-06-30T10:21:31.238Z,66.30
2023-06-30T10:22:39.760Z,65.99
2023-06-30T10:23:47.606Z,65.83
2023-06-30T10:24:56.301Z,65.47
2023-06-30T10:26:06.230Z,65.43
2023-06-30T10:27:18.479Z,65.63
2023-06-30T10:28:29.779Z,65.18
2023-06-30T10:29:37.674Z,65.17
2023-06-30T10:30:43.350Z,65.26
2023-06-30T10:31:51.392Z,65.19
2023-06-30T10:32:56.444Z,65.01
2023-06-30T10:34:04.564Z,65.21
2023-06-30T10:35:15.075Z,65.83
2023-06-30T10:36:24.709Z,65.48
2023-06-30T10:37:29.802Z,65.46
2023-06-30T10:38:37.872Z,65.81
2023-06-30T10:39:45.135Z,65.45
2023-06-30T10:40:52.934Z,65.24
2023-06-30T10:41:59.552Z,65.62
2023-06-30T10:43:11.963Z,65.75
2023-06-30T10:44:24.437Z,65.60
2023-06-30T10:45:31.275Z,65.68
2023-06-30T10:46:56.784Z,65.17
2023-06-30T10:48:13.690Z,65.25
2023-06-30T10:49:31.292Z,64.94
2023-06-30T10:50:46.958Z,65.07
2023-06-30T10:51:53.047Z,65.13
2023-06-30T10:53:00.655Z,65.33
2023-06-30T10:54:05.820Z,65.29
2023-06-30T10:55:20.394Z,64.85
2023-06-30T10:56:25.682Z,64.79
2023-06-30T10:57:40.073Z,64.66
2023-06-30T10:58:50.351Z,64.89
2023-06-30T11:00:14.053Z,64.71
2023-06-30T11:01:18.931Z,65.15
2023-06-30T11:02:34.744Z,65.02
2023-06-30T11:04:11.644Z,65.08
2023-06-30T11:05:27.834Z,65.10
2023-06-30T11:06:32.848Z,64.97
2023-06-30T11:07:40.495Z,65.23
2023-06-30T11:09:05.136Z,65.07
2023-06-30T11:10:14.962Z,64.97
2023-06-30T11:11:24.468Z,64.94
2023-06-30T11:12:31.066Z,65.22
2023-06-30T11:13:43.820Z,65.27
2023-06-30T11:14:56.393Z,64.94
2023-06-30T11:16:06.954Z,64.48
2023-06-30T11:17:13.557Z,64.62
2023-06-30T11:18:25.771Z,64.88
2023-06-30T11:19:30.865Z,64.49
2023-06-30T11:20:39.023Z,64.81
2023-06-30T11:21:44.919Z,64.54
2023-06-30T11:23:02.671Z,64.71
2023-06-30T11:24:17.028Z,64.21
2023-06-30T11:25:25.489Z,64.29
2023-06-30T11:26:33.393Z,64.18
2023-06-30T11:27:39.232Z,64.02
2023-06-30T11:28:49.652Z,63.76
2023-06-30T11:30:01.145Z,63.13
2023-06-30T11:31:12.725Z,63.86
2023-06-30T11:32:19.775Z,63.80
2023-06-30T11:33:27.935Z,63.76
2023-06-30T11:34:33.490Z,63.35
2023-06-30T11:35:41.569Z,62.87
2023-06-30T11:36:49.689Z,62.41
2023-06-30T11:37:58.446Z,62.54
2023-06-30T11:39:03.521Z,61.95
2023-06-30T11:40:12.436Z,62.13
2023-06-30T11:41:20.924Z,61.83
2023-06-30T11:42:29.565Z,61.53
2023-06-30T11:43:41.560Z,61.74
2023-06-30T11:44:46.540Z,61.74
2023-06-30T11:46:02.735Z,61.50
2023-06-30T11:47:10.953Z,61.26
2023-06-30T11:48:18.776Z,61.06
2023-06-30T11:49:23.976Z,60.63
2023-06-30T11:50:35.139Z,60.48
2023-06-30T11:51:40.112Z,59.65
2023-06-30T11:52:48.085Z,59.81
2023-06-30T11:53:52.958Z,59.29
2023-06-30T11:55:00.500Z,58.66
2023-06-30T11:56:08.205Z,59.09
2023-06-30T11:57:13.142Z,58.68
2023-06-30T11:58:24.438Z,58.92
2023-06-30T11:59:29.542Z,59.09
2023-06-30T12:00:37.059Z,58.73
2023-06-30T12:01:43.600Z,58.72
2023-06-30T12:02:55.819Z,58.12
2023-06-30T12:04:05.870Z,57.07
2023-06-30T12:05:14.543Z,56.46
2023-06-30T12:06:23.354Z,56.72
2023-06-30T12:07:28.745Z,56.64
2023-06-30T12:08:40.757Z,56.18
2023-06-30T12:09:48.199Z,55.74
2023-06-30T12:10:55.949Z,55.48
2023-06-30T12:12:02.328Z,55.50
2023-06-30T12:13:13.310Z,55.54
2023-06-30T12:14:20.343Z,55.62
2023-06-30T12:15:28.218Z,55.63
2023-06-30T12:16:41.484Z,55.79
2023-06-30T12:17:51.154Z,55.83
2023-06-30T12:19:01.541Z,55.77
2023-06-30T12:20:08.752Z,55.71
2023-06-30T12:21:17.945Z,55.75
2023-06-30T12:22:29.038Z,55.69
2023-06-30T12:23:36.698Z,56.02
2023-06-30T12:24:44.113Z,56.00
2023-06-30T12:25:53.917Z,55.80
2023-06-30T12:26:58.956Z,55.80
2023-06-30T12:28:08.115Z,56.08
2023-06-30T12:29:13.206Z,55.70
2023-06-30T12:30:23.448Z,55.49
2023-06-30T12:31:28.585Z,55.24
2023-06-30T12:32:36.369Z,54.64
2023-06-30T12:33:41.317Z,53.99
2023-06-30T12:34:53.440Z,53.72
2023-06-30T12:36:01.665Z,53.55
2023-06-30T12:37:07.053Z,53.84
2023-06-30T12:38:15.536Z,53.42
2023-06-30T12:39:20.538Z,53.46
2023-06-30T12:40:43.550Z,53.63
2023-06-30T12:41:51.185Z,54.27
2023-06-30T12:42:58.924Z,54.03
2023-06-30T12:44:05.397Z,54.16
2023-06-30T12:45:14.306Z,54.08
2023-06-30T12:46:19.213Z,54.83
2023-06-30T12:47:27.051Z,54.47
2023-06-30T12:48:35.357Z,54.80
2023-06-30T12:49:40.253Z,54.90
2023-06-30T12:50:50.621Z,54.83
2023-06-30T12:51:55.998Z,54.90
2023-06-30T12:53:03.980Z,55.20
2023-06-30T12:54:09.064Z,54.84
2023-06-30T12:55:18.088Z,54.39
2023-06-30T12:56:25.813Z,54.25
2023-06-30T12:57:33.447Z,54.40
2023-06-30T12:58:38.533Z,54.58
2023-06-30T12:59:46.172Z,54.91
2023-06-30T13:00:54.608Z,54.67
2023-06-30T13:01:59.652Z,55.10
2023-06-30T13:03:07.534Z,54.63
2023-06-30T13:04:12.641Z,54.07
2023-06-30T13:05:20.456Z,53.16
2023-06-30T13:06:28.509Z,52.93
2023-06-30T13:07:37.075Z,53.14
2023-06-30T13:08:42.070Z,53.15
2023-06-30T13:09:50.885Z,53.49
2023-06-30T13:10:56.994Z,53.27
2023-06-30T13:12:04.853Z,53.89
2023-06-30T13:13:13.139Z,54.00
2023-06-30T13:14:18.350Z,54.01
2023-06-30T13:15:26.423Z,52.90
2023-06-30T13:16:31.462Z,53.07
2023-06-30T13:17:39.125Z,52.53
2023-06-30T13:18:44.133Z,51.67
2023-06-30T13:19:51.779Z,51.53
2023-06-30T13:20:59.535Z,51.71
2023-06-30T13:22:10.458Z,52.21
2023-06-30T13:23:28.159Z,52.43
2023-06-30T13:24:45.291Z,53.00
2023-06-30T13:25:50.823Z,53.13
2023-06-30T13:26:58.537Z,52.85
2023-06-30T13:28:03.648Z,52.69
2023-06-30T13:29:11.401Z,53.43
2023-06-30T13:30:16.604Z,53.50
2023-06-30T13:31:24.537Z,52.93
2023-06-30T13:32:30.084Z,52.77
2023-06-30T13:33:38.160Z,52.65
2023-06-30T13:34:46.133Z,52.74
2023-06-30T13:35:51.044Z,52.18
2023-06-30T13:36:58.690Z,51.60
2023-06-30T13:38:11.917Z,51.75
2023-06-30T13:39:16.960Z,52.95
2023-06-30T13:40:25.279Z,51.63
2023-06-30T13:41:30.417Z,51.66
2023-06-30T13:42:38.395Z,51.56
2023-06-30T13:43:43.509Z,52.19
2023-06-30T13:44:54.428Z,52.11
2023-06-30T13:46:03.933Z,52.11
2023-06-30T13:47:11.761Z,51.49
2023-06-30T13:48:16.955Z,51.27
2023-06-30T13:49:25.282Z,51.22
2023-06-30T13:50:30.215Z,51.19
2023-06-30T13:51:38.084Z,50.70
2023-06-30T13:52:45.828Z,51.73
2023-06-30T13:53:53.470Z,51.94
2023-06-30T13:55:01.228Z,52.11
2023-06-30T13:56:07.213Z,52.30
2023-06-30T13:57:14.811Z,52.57
2023-06-30T13:58:19.741Z,53.03
2023-06-30T13:59:28.910Z,53.21
2023-06-30T14:00:33.843Z,52.68
2023-06-30T14:01:42.762Z,52.75
2023-06-30T14:02:50.486Z,52.96
2023-06-30T14:03:55.674Z,52.77
2023-06-30T14:05:03.483Z,53.14
2023-06-30T14:06:13.009Z,53.36
2023-06-30T14:07:20.704Z,53.83
2023-06-30T14:08:25.764Z,54.16
2023-06-30T14:09:36.364Z,54.33
2023-06-30T14:10:44.387Z,54.34
2023-06-30T14:11:52.918Z,53.94
2023-06-30T14:12:57.991Z,52.44
2023-06-30T14:14:07.016Z,51.76
2023-06-30T14:15:12.843Z,52.45
2023-06-30T14:16:20.471Z,52.70
2023-06-30T14:17:25.593Z,52.42
2023-06-30T14:18:33.551Z,52.15
2023-06-30T14:19:39.385Z,50.76
2023-06-30T14:20:49.805Z,51.31
2023-06-30T14:21:54.732Z,51.78
2023-06-30T14:23:02.688Z,51.49
2023-06-30T14:24:08.502Z,51.37
2023-06-30T14:25:26.648Z,50.83
2023-06-30T14:26:37.126Z,51.27
2023-06-30T14:27:42.281Z,51.32
2023-06-30T14:28:50.747Z,51.63
2023-06-30T14:29:56.160Z,51.34
2023-06-30T14:31:03.914Z,50.89
2023-06-30T14:32:10.291Z,49.82
2023-06-30T14:33:18.020Z,50.26
2023-06-30T14:34:22.982Z,49.95
2023-06-30T14:35:30.641Z,49.77
2023-06-30T14:36:38.412Z,49.64